Latest Coastal Weather Observations for Port Augusta

IDS60701

Issued at 5:21 am CDT Thursday 5 March 2015 (issued every 10 minutes, with the page automatically refreshed every 10 minutes)

About coastal observations | Map of coastal stations | Coastal observations for SA | Marine services | Other Formats
Station Details ID: 018201 Name: PORT AUGUSTA AERO Lat: -32.51 Lon: 137.72 Height: 13.97 m
Data from the previous 72 hours. | See also: Recent months at Port Augusta
Date/Time
CDT
Temp

°C
Wind Pressure Rain
since 9am
mm
Weather Cloud Vis
km
Sea
Height
m
Swell
Dir
 
Speed
knots
Gust
knots
hPa Trend Height
m
Period
s
Dir
05/05:00am 18.4 SSW 15 19 1019.4 - 0.0 - Partly cloudy - - - - -
05/04:30am 18.4 SSW 14 19 1019.4 - 0.0 - Partly cloudy - - - - -
05/04:00am 17.9 SSW 14 19 1019.1 - 0.0 - - - - - - -
05/03:30am 17.8 SSW 14 19 1019.2 - 0.0 - - - - - - -
05/03:00am 18.1 SSW 17 21 1019.2 - 0.0 - - - - - - -
05/02:30am 18.3 SSW 16 20 1019.8 - 0.0 - - - - - - -
05/02:00am 18.5 SSW 17 22 1019.9 - 0.0 - - - - - - -
05/01:30am 18.8 SSW 17 23 1019.6 - 0.0 - - - - - - -
05/01:00am 19.2 S 19 24 1019.5 - 0.0 - Partly cloudy - - - - -
05/12:30am 20.2 S 19 25 1019.5 - 0.0 - Partly cloudy - - - - -
05/12:00am 20.1 S 16 23 1019.5 - 0.0 - - - - - - -
 
Date/Time
CDT
Temp

°C
Wind Pressure Rain
since 9am
mm
Weather Cloud Vis
km
Sea
Height
m
Swell
Dir
 
Speed
knots
Gust
knots
hPa Trend Height
m
Period
s
Dir
04/11:30pm 20.0 S 16 20 1019.4 - 0.0 - - - - - - -
04/11:00pm 19.7 S 14 19 1019.6 - 0.0 - - - - - - -
04/10:30pm 19.7 S 13 18 1019.8 - 0.0 - - - - - - -
04/10:00pm 20.0 S 16 20 1019.6 - 0.0 - - - - - - -
04/09:30pm 20.0 SSE 17 22 1019.2 - 0.0 - - - - - - -
04/09:00pm 20.3 S 15 19 1018.6 - 0.0 - - - - - - -
04/08:30pm 20.7 SSE 13 17 1018.2 - 0.0 - - - - - - -
04/08:00pm 21.2 SSE 14 17 1017.7 - 0.0 - - - - - - -
04/07:30pm 21.7 SSE 15 20 1017.5 - 0.0 - - - - - - -
04/07:00pm 22.6 SSE 18 24 1017.1 - 0.0 - - - - - - -
04/06:30pm 23.4 SSE 19 24 1016.8 - 0.0 - - - - - - -
04/06:00pm 23.6 SE 20 25 1016.4 - 0.0 - - - - - - -
04/05:30pm 24.8 SE 18 23 1016.4 - 0.0 - - - - - - -
04/05:00pm 25.4 SE 18 24 1016.1 - 0.0 - - - - - - -
04/04:30pm 25.9 SE 20 24 1015.9 - 0.0 - - - - - - -
04/04:00pm 25.7 SE 18 22 1016.1 - 0.0 - - - - - - -
04/03:30pm 25.9 SE 16 21 1016.2 - 0.0 - - - - - - -
04/03:00pm 24.1 SE 16 22 1016.4 - 0.0 - - - - - - -
04/02:30pm 24.0 SSE 15 20 1016.7 - 0.0 - - - - - - -
04/02:00pm 23.5 SE 14 21 1017.2 - 0.0 - - - - - - -
04/01:30pm 22.8 SSE 16 23 1017.6 - 0.0 - - - - - - -
04/01:00pm 22.6 SSE 14 19 1018.0 - 0.0 - - - - - - -
04/12:30pm 21.9 SSE 18 23 1018.3 - 0.0 - - - - - - -
04/12:00pm 19.7 SSE 17 23 1018.6 - 0.0 - Mostly clear - - - - -
04/11:30am 18.9 SE 16 21 1018.8 - 0.0 - - - - - - -
04/11:00am 19.0 SE 15 20 1018.7 - 0.0 - - - - - - -
04/10:30am 18.5 SSE 16 22 1018.5 - 0.0 - - - - - - -
04/10:00am 17.8 SSE 15 20 1018.8 - 0.0 - Partly cloudy - - - - -
04/09:30am 17.2 SSE 15 19 1018.6 - 0.0 - Cloudy - - - - -
04/09:00am 17.3 SSE 14 19 1018.4 - 0.0 - Partly cloudy - - - - -
04/08:30am 16.9 SSE 15 20 1018.1 - 0.0 - - - - - - -
04/08:00am 16.6 S 11 15 1018.0 - 0.0 - Partly cloudy - - - - -
04/07:30am 16.3 S 11 16 1017.6 - 0.0 - Partly cloudy - - - - -
04/07:00am 16.4 S 11 16 1017.7 - 0.0 - - - - - - -
04/06:30am 16.6 S 10 15 1017.4 - 0.0 - - - - - - -
04/06:00am 16.7 S 10 13 1017.3 - 0.0 - - - - - - -
04/05:30am 17.3 S 15 19 1016.9 - 0.0 - - - - - - -
04/05:00am 17.2 S 15 18 1016.4 - 0.0 - - - - - - -
04/04:30am 17.3 S 12 16 1016.6 - 0.0 - - - - - - -
04/04:00am 17.5 S 13 17 1016.5 - 0.0 - - - - - - -
04/03:30am 17.7 S 12 17 1016.6 - 0.0 - - - - - - -
04/03:00am 17.9 S 14 19 1016.6 - 0.0 - - - - - - -
04/02:30am 18.0 S 14 18 1016.9 - 0.0 - - - - - - -
04/02:00am 18.1 S 14 17 1017.2 - 0.0 - - - - - - -
04/01:30am 18.5 SSE 14 18 1017.5 - 0.0 - - - - - - -
04/01:00am 19.0 S 15 19 1017.7 - 0.0 - - - - - - -
04/12:30am 19.4 S 16 21 1017.8 - 0.0 - - - - - - -
04/12:00am 19.5 S 14 17 1017.6 - 0.0 - - - - - - -
 
Date/Time
CDT
Temp

°C
Wind Pressure Rain
since 9am
mm
Weather Cloud Vis
km
Sea
Height
m
Swell
Dir
 
Speed
knots
Gust
knots
hPa Trend Height
m
Period
s
Dir
03/11:30pm 19.5 S 14 20 1017.5 - 0.0 - - - - - - -
03/11:00pm 19.5 S 14 20 1017.2 - 0.0 - - - - - - -
03/10:30pm 19.6 S 14 19 1017.4 - 0.0 - - - - - - -
03/10:00pm 19.8 S 13 18 1017.5 - 0.0 - - - - - - -
03/09:30pm 20.1 S 12 17 1016.9 - 0.0 - - - - - - -
03/09:00pm 19.8 SE 17 21 1016.4 - 0.0 - Mostly clear - - - - -
03/08:30pm 20.5 SE 16 20 1016.0 - 0.0 - Cloudy - - - - -
03/08:00pm 21.1 SE 14 18 1015.6 - 0.0 - Partly cloudy - - - - -
03/07:30pm 21.5 SE 16 20 1015.4 - 0.0 - Partly cloudy - - - - -
03/07:00pm 22.8 SE 15 18 1015.2 - 0.0 - Partly cloudy - - - - -
03/06:30pm 23.6 SE 14 19 1014.7 - 0.0 - Partly cloudy - - - - -
03/06:00pm 22.9 SE 14 18 1014.6 - 0.0 - - - - - - -
03/05:30pm 23.2 SE 13 17 1014.4 - 0.0 - Partly cloudy - - - - -
03/05:00pm 25.0 SE 16 21 1014.2 - 0.0 - - - - - - -
03/04:30pm 24.4 SE 15 19 1014.3 - 0.0 - Partly cloudy - - - - -
03/04:00pm 24.5 SE 16 20 1014.4 - 0.0 - Cloudy - - - - -
03/03:30pm 25.2 SE 16 22 1014.3 - 0.0 - Partly cloudy - - - - -
03/03:00pm 24.4 SE 17 22 1014.7 - 0.0 - Cloudy - - - - -
03/02:30pm 24.4 SE 16 21 1014.9 - 0.0 - Cloudy - - - - -
03/02:00pm 24.4 SE 15 21 1015.5 - 0.0 - Partly cloudy - - - - -
03/01:30pm 23.9 SE 14 18 1015.8 - 0.0 - Cloudy - - - - -
03/01:00pm 24.0 SE 14 18 1016.0 - 0.0 - Cloudy - - - - -
03/12:30pm 23.7 SSE 15 19 1016.3 - 0.0 - Cloudy - - - - -
03/12:00pm 22.9 SSE 16 20 1016.5 - 0.0 - Mostly cloudy - - - - -
03/11:30am 23.6 SSE 16 20 1016.5 - 0.0 - Partly cloudy - - - - -
03/11:00am 22.0 SE 15 19 1016.6 - 0.0 - Partly cloudy - - - - -
03/10:30am 21.5 SSE 15 20 1016.8 - 0.0 - - - - - - -
03/10:00am 21.3 SSE 14 19 1016.9 - 0.0 - - - - - - -
03/09:30am 21.2 SSE 14 19 1016.7 - 0.0 - Partly cloudy - - - - -
03/09:00am 20.6 SSE 17 21 1016.5 - 0.0 - - - - - - -
03/08:30am 20.1 SSE 14 19 1015.9 - 0.0 - - - - - - -
03/08:00am 19.1 SSE 14 18 1015.6 - 0.0 - - - - - - -
03/07:30am 19.2 S 12 18 1015.3 - 0.0 - Partly cloudy - - - - -
03/07:00am 18.8 SSE 14 18 1014.8 - 0.0 - Partly cloudy - - - - -
03/06:30am 19.0 SSE 15 21 1014.5 - 0.0 - Cloudy - - - - -
03/06:00am 18.8 SSE 16 20 1014.0 - 0.0 - Mostly cloudy - - - - -
03/05:30am 18.8 SSE 15 20 1014.1 - 0.0 - Cloudy - - - - -
03/05:00am 18.7 SSE 19 25 1013.7 - 0.0 - Cloudy - - - - -
03/04:30am 19.2 SSE 17 23 1013.7 - 0.0 - Cloudy - - - - -
03/04:00am 19.2 S 13 18 1014.0 - 0.0 - Cloudy - - - - -
03/03:30am 19.4 S 13 17 1014.4 - 0.0 - Cloudy - - - - -
03/03:00am 19.6 S 13 19 1014.2 - 0.0 - Cloudy - - - - -
03/02:30am 19.7 SSE 13 17 1014.3 - 0.0 - Cloudy - - - - -
03/02:00am 19.7 SSE 14 18 1014.6 - 0.0 - Cloudy - - - - -
03/01:30am 20.2 SSE 12 17 1014.8 - 0.0 - Cloudy - - - - -
03/01:00am 20.5 S 14 18 1014.7 - 0.0 - Cloudy - - - - -
03/12:30am 20.7 S 11 16 1014.9 - 0.0 - Cloudy - - - - -
03/12:00am 21.0 SSE 15 22 1014.6 - 0.0 - Cloudy - - - - -
 
Date/Time
CDT
Temp

°C
Wind Pressure Rain
since 9am
mm
Weather Cloud Vis
km
Sea
Height
m
Swell
Dir
 
Speed
knots
Gust
knots
hPa Trend Height
m
Period
s
Dir
02/11:30pm 20.3 S 15 23 1014.9 - 0.0 - Cloudy - - - - -
02/11:00pm 21.1 S 14 19 1015.2 - 0.0 - Cloudy - - - - -
02/10:30pm 20.7 S 21 27 1014.5 - 0.0 - Cloudy - - - - -
02/10:00pm 20.5 S 17 23 1014.5 - 0.0 - Cloudy - - - - -
02/09:30pm 20.9 S 20 28 1014.4 - 0.0 - Cloudy - - - - -
02/09:00pm 21.0 SSE 20 28 1013.7 - 0.0 - Cloudy - - - - -
02/08:30pm 21.2 SSE 23 32 1012.9 - 0.0 - Cloudy - - - - -
02/08:24pm 21.3 SSE 22 32 1012.8 - 0.0 - Cloudy - - - - -
02/08:00pm 21.9 SSE 23 32 1012.2 - 0.0 - Cloudy - - - - -
02/07:30pm 23.6 SSE 20 25 1012.1 - 0.0 - Partly cloudy - - - - -
02/07:00pm 25.3 SSE 19 27 1011.6 - 0.0 - Partly cloudy - - - - -
02/06:30pm 25.5 SE 17 22 1011.4 - 0.0 - - - - - - -
02/06:00pm 27.5 SE 18 22 1010.9 - 0.0 - - - - - - -
02/05:30pm 28.8 SSE 18 22 1010.6 - 0.0 - - - - - - -
02/05:00pm 30.0 SSE 17 21 1010.3 - 0.0 - - - - - - -
02/04:30pm 30.2 SSE 13 17 1010.2 - 0.0 - - - - - - -
02/04:00pm 30.9 SE 8 13 1010.2 - 0.0 - - - - - - -
02/03:30pm 31.9 ESE 10 14 1010.5 - 0.0 - - - - - - -
02/03:00pm 31.2 SE 11 16 1011.0 - 0.0 - - - - - - -
02/02:30pm 31.1 ESE 7 10 1011.3 - 0.0 - - - - - - -
02/02:00pm 29.4 NE 7 12 1011.5 - 0.0 - - - - - - -
02/01:30pm 28.8 SE 10 12 1011.7 - 0.0 - - - - - - -
02/01:00pm 29.1 E 6 10 1012.2 - 0.0 - - - - - - -
02/12:30pm 28.4 E 5 10 1012.6 - 0.0 - - - - - - -
02/12:00pm 28.6 ENE 9 13 1012.8 - 0.0 - - - - - - -
02/11:30am 28.2 N 6 12 1013.1 - 0.0 - - - - - - -
02/11:00am 27.4 ESE 7 11 1013.5 - 0.0 - - - - - - -
02/10:30am 26.5 E 10 13 1013.4 - 0.0 - - - - - - -
02/10:00am 24.2 ESE 9 11 1013.7 - 0.0 - - - - - - -
02/09:30am 21.8 ESE 8 10 1013.8 - 0.0 - - - - - - -
02/09:00am 20.8 ESE 8 11 1013.9 - 0.0 - - - - - - -
02/08:30am 19.7 SE 7 10 1013.9 - 0.0 - - - - - - -
02/08:00am 18.8 ESE 7 9 1013.9 - 0.0 - - - - - - -
02/07:30am 18.0 ESE 8 9 1013.7 - 0.0 - - - - - - -
02/07:00am 18.5 ESE 8 10 1013.5 - 0.0 - - - - - - -
02/06:30am 18.3 ESE 9 12 1013.3 - 0.0 - - - - - - -
02/06:00am 17.9 ESE 6 8 1013.3 - 0.0 - - - - - - -
02/05:30am 18.0 ESE 7 10 1013.0 - 0.0 - - - - - - -

Other Formats:

Comma delimited format used in spreadsheet applications
http://www.bom.gov.au/fwo/IDS60701/IDS60701.95666.axf

JavaScript Object Notation format (JSON) in row-major order
http://www.bom.gov.au/fwo/IDS60701/IDS60701.95666.json